createdAt,value
2023-03-13T00:02:14.429Z,50.81
2023-03-13T00:04:41.318Z,50.75
2023-03-13T00:07:08.184Z,50.69
2023-03-13T00:09:35.025Z,50.81
2023-03-13T00:12:01.800Z,50.81
2023-03-13T00:14:28.600Z,50.74
2023-03-13T00:16:55.554Z,50.86
2023-03-13T00:19:22.425Z,50.91
2023-03-13T00:21:49.452Z,50.79
2023-03-13T00:24:16.731Z,50.70
2023-03-13T00:26:43.603Z,50.74
2023-03-13T00:29:10.493Z,50.84
2023-03-13T00:31:37.435Z,50.98
2023-03-13T00:34:04.762Z,51.18
2023-03-13T00:36:33.859Z,51.08
2023-03-13T00:39:01.176Z,51.02
2023-03-13T00:41:30.585Z,50.95
2023-03-13T00:43:58.076Z,50.90
2023-03-13T00:46:28.238Z,50.99
2023-03-13T00:48:55.881Z,50.96
2023-03-13T00:51:26.726Z,50.90
2023-03-13T00:53:53.851Z,51.04
2023-03-13T00:56:21.861Z,51.01
2023-03-13T00:58:50.034Z,50.75
2023-03-13T01:01:25.611Z,50.73
2023-03-13T01:03:55.176Z,50.81
2023-03-13T01:06:24.243Z,50.93
2023-03-13T01:08:51.559Z,50.98
2023-03-13T01:11:25.138Z,50.89
2023-03-13T01:13:56.364Z,50.98
2023-03-13T01:16:23.830Z,50.92
2023-03-13T01:18:53.391Z,50.90
2023-03-13T01:21:22.031Z,50.77
2023-03-13T01:23:50.590Z,50.65
2023-03-13T01:26:18.058Z,50.74
2023-03-13T01:28:45.677Z,50.71
2023-03-13T01:31:13.798Z,50.65
2023-03-13T01:33:40.988Z,50.64
2023-03-13T01:36:09.321Z,50.86
2023-03-13T01:38:37.174Z,50.72
2023-03-13T01:41:04.358Z,50.85
2023-03-13T01:43:33.867Z,50.74
2023-03-13T01:46:17.806Z,50.81
2023-03-13T01:48:47.860Z,50.83
2023-03-13T01:51:30.848Z,50.78
2023-03-13T01:54:07.084Z,50.83
2023-03-13T01:56:58.826Z,50.79
2023-03-13T01:59:32.468Z,50.73
2023-03-13T02:02:02.834Z,50.87
2023-03-13T02:04:35.111Z,50.87
2023-03-13T02:07:07.341Z,50.64
2023-03-13T02:09:35.476Z,50.91
2023-03-13T02:12:35.761Z,51.08
2023-03-13T02:15:15.839Z,50.90
2023-03-13T02:17:44.569Z,50.80
2023-03-13T02:20:12.955Z,51.02
2023-03-13T02:22:50.227Z,51.04
2023-03-13T02:25:34.295Z,51.03
2023-03-13T02:28:05.136Z,50.78
2023-03-13T02:30:33.158Z,50.85
2023-03-13T02:33:01.479Z,50.98
2023-03-13T02:35:30.022Z,50.94
2023-03-13T02:38:01.545Z,51.01
2023-03-13T02:40:31.707Z,51.07
2023-03-13T02:43:03.026Z,51.07
2023-03-13T02:45:29.859Z,51.04
2023-03-13T02:47:56.719Z,51.08
2023-03-13T02:50:23.865Z,51.13
2023-03-13T02:53:00.842Z,51.12
2023-03-13T02:55:41.003Z,51.13
2023-03-13T02:58:08.330Z,51.23
2023-03-13T03:00:36.098Z,51.33
2023-03-13T03:03:02.897Z,51.35
2023-03-13T03:05:29.651Z,51.24
2023-03-13T03:07:56.490Z,51.48
2023-03-13T03:10:23.292Z,51.47
2023-03-13T03:12:50.189Z,51.33
2023-03-13T03:15:17.172Z,51.33
2023-03-13T03:17:44.000Z,51.49
2023-03-13T03:20:14.112Z,51.49
2023-03-13T03:22:40.994Z,51.57
2023-03-13T03:25:09.297Z,51.59
2023-03-13T03:27:36.831Z,51.50
2023-03-13T03:30:05.684Z,51.49
2023-03-13T03:32:32.529Z,51.60
2023-03-13T03:34:59.355Z,51.56
2023-03-13T03:37:26.384Z,51.43
2023-03-13T03:39:53.222Z,51.48
2023-03-13T03:42:20.030Z,51.42
2023-03-13T03:44:47.036Z,51.47
2023-03-13T03:47:13.913Z,51.24
2023-03-13T03:49:41.001Z,51.26
2023-03-13T03:52:07.860Z,51.36
2023-03-13T03:54:35.246Z,51.57
2023-03-13T03:57:02.105Z,51.62
2023-03-13T03:59:29.006Z,51.57
2023-03-13T04:01:56.044Z,51.36
2023-03-13T04:04:22.918Z,51.47
2023-03-13T04:06:49.759Z,51.50
2023-03-13T04:09:16.681Z,51.64
2023-03-13T04:11:43.558Z,51.59
2023-03-13T04:14:10.361Z,51.73
2023-03-13T04:16:37.329Z,51.59
2023-03-13T04:19:04.233Z,51.61
2023-03-13T04:21:31.073Z,51.60
2023-03-13T04:23:57.883Z,51.69
2023-03-13T04:26:24.771Z,51.61
2023-03-13T04:28:51.627Z,51.56
2023-03-13T04:31:18.648Z,51.63
2023-03-13T04:33:45.433Z,51.71
2023-03-13T04:36:12.301Z,51.61
2023-03-13T04:38:39.358Z,51.59
2023-03-13T04:41:06.178Z,51.71
2023-03-13T04:43:32.981Z,51.71
2023-03-13T04:45:59.811Z,51.86
2023-03-13T04:48:26.702Z,51.80
2023-03-13T04:50:53.503Z,51.77
2023-03-13T04:53:20.422Z,51.86
2023-03-13T04:55:48.700Z,52.08
2023-03-13T04:58:15.578Z,52.26
2023-03-13T05:00:42.694Z,52.09
2023-03-13T05:03:09.571Z,52.36
2023-03-13T05:05:36.644Z,52.49
2023-03-13T05:08:03.701Z,52.40
2023-03-13T05:10:30.605Z,52.33
2023-03-13T05:12:57.444Z,52.41
2023-03-13T05:15:24.345Z,52.61
2023-03-13T05:17:53.553Z,52.58
2023-03-13T05:20:21.357Z,52.84
2023-03-13T05:22:48.201Z,53.01
2023-03-13T05:25:15.184Z,52.79
2023-03-13T05:27:42.142Z,52.87
2023-03-13T05:30:09.761Z,53.04
2023-03-13T05:32:36.653Z,52.99
2023-03-13T05:35:03.714Z,53.22
2023-03-13T05:37:30.521Z,53.07
2023-03-13T05:39:57.358Z,53.07
2023-03-13T05:42:24.292Z,53.11
2023-03-13T05:44:51.073Z,53.14
2023-03-13T05:47:18.720Z,53.10
2023-03-13T05:49:45.751Z,52.92
2023-03-13T05:52:12.574Z,52.80
2023-03-13T05:54:39.413Z,53.00
2023-03-13T05:57:06.316Z,53.09
2023-03-13T05:59:33.142Z,52.96
2023-03-13T06:01:59.923Z,52.57
2023-03-13T06:04:26.941Z,52.69
2023-03-13T06:06:53.785Z,52.88
2023-03-13T06:09:20.835Z,52.88
2023-03-13T06:11:47.657Z,53.09
2023-03-13T06:14:14.559Z,52.99
2023-03-13T06:16:41.564Z,52.84
2023-03-13T06:19:08.412Z,52.78
2023-03-13T06:21:35.287Z,52.89
2023-03-13T06:24:02.103Z,52.72
2023-03-13T06:26:29.066Z,52.64
2023-03-13T06:28:55.950Z,52.72
2023-03-13T06:31:22.932Z,52.78
2023-03-13T06:33:54.542Z,52.70
2023-03-13T06:36:25.338Z,52.69
2023-03-13T06:38:52.217Z,52.83
2023-03-13T06:41:19.052Z,52.80
2023-03-13T06:43:45.903Z,52.79
2023-03-13T06:46:18.977Z,52.70
2023-03-13T06:48:46.515Z,52.73
2023-03-13T06:51:21.425Z,52.67
2023-03-13T06:53:48.581Z,52.59
2023-03-13T06:56:15.562Z,52.51
2023-03-13T06:58:42.433Z,52.45
2023-03-13T07:01:12.005Z,52.36
2023-03-13T07:03:39.758Z,52.30
2023-03-13T07:06:06.789Z,52.24
2023-03-13T07:08:34.205Z,52.18
2023-03-13T07:11:04.561Z,52.15
2023-03-13T07:13:34.755Z,52.08
2023-03-13T07:16:07.208Z,52.03
2023-03-13T07:18:34.701Z,51.97
2023-03-13T07:21:05.273Z,51.95
2023-03-13T07:23:34.642Z,51.79
2023-03-13T07:26:04.428Z,51.85
2023-03-13T07:28:31.752Z,51.84
2023-03-13T07:31:14.726Z,51.83
2023-03-13T07:33:45.653Z,51.80
2023-03-13T07:36:14.576Z,51.75
2023-03-13T07:38:41.547Z,51.71
2023-03-13T07:41:08.475Z,51.68
2023-03-13T07:43:35.353Z,51.66
2023-03-13T07:46:04.649Z,51.61
2023-03-13T07:48:36.770Z,51.61
2023-03-13T07:51:08.102Z,51.54
2023-03-13T07:53:35.280Z,51.43
2023-03-13T07:56:22.319Z,51.35
2023-03-13T07:58:49.315Z,51.28
2023-03-13T08:01:30.556Z,51.27
2023-03-13T08:03:58.893Z,51.17
2023-03-13T08:06:27.375Z,51.10
2023-03-13T08:08:58.037Z,51.03
2023-03-13T08:11:26.478Z,51.01
2023-03-13T08:13:54.620Z,50.97
2023-03-13T08:16:27.403Z,50.95
2023-03-13T08:18:56.595Z,50.91
2023-03-13T08:21:25.822Z,50.85
2023-03-13T08:24:07.123Z,50.79
2023-03-13T08:26:36.659Z,50.77
2023-03-13T08:29:10.095Z,50.75
2023-03-13T08:31:42.249Z,50.69
2023-03-13T08:34:09.052Z,50.61
2023-03-13T08:36:37.498Z,50.55
2023-03-13T08:39:13.706Z,50.50
2023-03-13T08:41:43.358Z,50.41
2023-03-13T08:44:15.538Z,50.38
2023-03-13T08:46:44.036Z,50.28
2023-03-13T08:49:12.323Z,50.31
2023-03-13T08:51:39.656Z,49.94
2023-03-13T08:54:06.733Z,49.85
2023-03-13T08:56:34.982Z,50.05
2023-03-13T08:59:05.886Z,50.06
2023-03-13T09:01:35.179Z,50.08
2023-03-13T09:04:04.459Z,50.00
2023-03-13T09:06:35.992Z,49.98
2023-03-13T09:09:05.571Z,50.02
2023-03-13T09:11:33.360Z,49.93
2023-03-13T09:14:00.194Z,49.88
2023-03-13T09:16:29.853Z,49.80
2023-03-13T09:18:58.076Z,49.79
2023-03-13T09:21:28.034Z,49.73
2023-03-13T09:23:54.869Z,49.69
2023-03-13T09:26:23.424Z,49.66
2023-03-13T09:28:52.003Z,49.46
2023-03-13T09:31:22.443Z,49.40
2023-03-13T09:33:50.786Z,49.59
2023-03-13T09:36:21.837Z,49.65
2023-03-13T09:38:51.188Z,49.65
2023-03-13T09:41:17.977Z,49.59
2023-03-13T09:43:48.206Z,49.55
2023-03-13T09:46:25.227Z,49.50
2023-03-13T09:49:00.046Z,49.49
2023-03-13T09:51:36.666Z,49.50
2023-03-13T09:54:30.521Z,49.50
2023-03-13T09:57:03.802Z,49.51
2023-03-13T09:59:37.767Z,49.49
2023-03-13T10:02:21.060Z,49.47
2023-03-13T10:04:53.697Z,49.47
2023-03-13T10:07:28.957Z,49.47
2023-03-13T10:09:55.854Z,49.49
2023-03-13T10:12:32.608Z,49.43
2023-03-13T10:15:55.163Z,49.47
2023-03-13T10:18:24.775Z,49.38
2023-03-13T10:20:57.045Z,49.20
2023-03-13T10:23:43.532Z,49.22
2023-03-13T10:26:37.513Z,49.29
2023-03-13T10:29:34.571Z,49.29
2023-03-13T10:32:14.743Z,49.28
2023-03-13T10:34:57.675Z,49.03
2023-03-13T10:37:25.925Z,48.91
2023-03-13T10:39:53.478Z,49.11
2023-03-13T10:42:35.242Z,49.14
2023-03-13T10:45:05.572Z,49.15
2023-03-13T10:47:37.981Z,49.15
2023-03-13T10:50:07.744Z,49.10
2023-03-13T10:52:40.490Z,49.10
2023-03-13T10:55:12.236Z,49.04
2023-03-13T10:57:44.441Z,48.97
2023-03-13T11:00:41.293Z,48.92
2023-03-13T11:03:18.583Z,48.86
2023-03-13T11:05:57.104Z,48.84
2023-03-13T11:08:33.926Z,48.80
2023-03-13T11:11:06.251Z,48.72
2023-03-13T11:13:44.609Z,48.72
2023-03-13T11:16:20.871Z,48.67
2023-03-13T11:18:59.730Z,48.63
2023-03-13T11:22:05.524Z,48.59
2023-03-13T11:24:38.420Z,48.52
2023-03-13T11:27:15.174Z,48.47
2023-03-13T11:29:48.141Z,48.31
2023-03-13T11:32:37.488Z,48.17
2023-03-13T11:35:40.729Z,48.13
2023-03-13T11:38:16.567Z,48.12
2023-03-13T11:40:49.410Z,48.02
2023-03-13T11:43:42.407Z,47.92
2023-03-13T11:46:09.494Z,47.70
2023-03-13T11:48:36.502Z,47.76
2023-03-13T11:51:20.564Z,47.71
2023-03-13T11:53:58.835Z,47.81
2023-03-13T11:56:38.795Z,47.68
2023-03-13T11:59:20.484Z,47.38
2023-03-13T12:01:56.059Z,47.38
2023-03-13T12:04:44.882Z,47.44
2023-03-13T12:07:25.558Z,47.42
2023-03-13T12:09:58.943Z,47.44
2023-03-13T12:12:49.698Z,47.41
2023-03-13T12:15:46.715Z,47.42
2023-03-13T12:18:41.173Z,47.48
2023-03-13T12:21:32.248Z,47.44
2023-03-13T12:24:26.101Z,47.43
2023-03-13T12:27:02.658Z,47.46
2023-03-13T12:29:48.193Z,47.50
2023-03-13T12:32:25.745Z,47.52
2023-03-13T12:35:01.946Z,47.51
2023-03-13T12:38:12.232Z,47.61
2023-03-13T12:40:52.292Z,47.61
2023-03-13T12:43:24.810Z,47.50
2023-03-13T12:46:12.262Z,47.49
2023-03-13T12:49:10.681Z,47.47
2023-03-13T12:51:58.910Z,47.56
2023-03-13T12:54:25.725Z,47.66
2023-03-13T12:56:52.423Z,47.62
2023-03-13T12:59:34.409Z,47.52
2023-03-13T13:02:03.812Z,47.36
2023-03-13T13:04:41.896Z,47.20
2023-03-13T13:07:23.394Z,47.09
2023-03-13T13:10:17.222Z,47.21
2023-03-13T13:12:46.786Z,47.26
2023-03-13T13:15:31.934Z,47.25
2023-03-13T13:18:32.506Z,47.24
2023-03-13T13:21:02.082Z,47.22
2023-03-13T13:23:38.488Z,47.25
2023-03-13T13:26:27.084Z,47.30
2023-03-13T13:28:55.330Z,47.38
2023-03-13T13:31:51.089Z,47.47
2023-03-13T13:34:37.934Z,47.48
2023-03-13T13:37:17.725Z,47.45
2023-03-13T13:39:48.317Z,47.33
2023-03-13T13:42:33.233Z,47.33
2023-03-13T13:45:20.660Z,47.27
2023-03-13T13:47:53.831Z,47.13
2023-03-13T13:50:27.815Z,46.90
2023-03-13T13:53:34.288Z,47.03
2023-03-13T13:56:19.852Z,47.01
2023-03-13T13:58:47.865Z,47.01
2023-03-13T14:01:16.891Z,47.01
2023-03-13T14:03:46.955Z,47.07
2023-03-13T14:06:32.272Z,47.06
2023-03-13T14:09:37.375Z,47.07
2023-03-13T14:12:47.619Z,47.10
2023-03-13T14:15:19.243Z,47.08
2023-03-13T14:17:49.882Z,47.05
2023-03-13T14:20:27.682Z,47.04
2023-03-13T14:22:57.976Z,47.04
2023-03-13T14:25:27.493Z,47.03
2023-03-13T14:27:55.541Z,46.98
2023-03-13T14:30:23.792Z,46.82
2023-03-13T14:32:51.097Z,46.79
2023-03-13T14:35:20.890Z,46.76
2023-03-13T14:37:51.181Z,46.75
2023-03-13T14:40:17.911Z,46.74
2023-03-13T14:42:56.779Z,46.75
2023-03-13T14:45:25.923Z,46.66
2023-03-13T14:47:53.618Z,46.62
2023-03-13T14:50:24.421Z,46.60
2023-03-13T14:53:05.406Z,46.38
2023-03-13T14:55:35.807Z,46.18
2023-03-13T14:58:23.985Z,46.25
2023-03-13T15:00:50.828Z,46.15
2023-03-13T15:03:18.870Z,45.97
2023-03-13T15:06:08.626Z,45.92
2023-03-13T15:08:41.269Z,45.92
2023-03-13T15:11:32.226Z,45.97
2023-03-13T15:13:59.134Z,45.87
2023-03-13T15:16:28.210Z,45.83
2023-03-13T15:18:57.292Z,46.01
2023-03-13T15:21:42.224Z,46.04
2023-03-13T15:24:15.647Z,46.25
2023-03-13T15:26:42.466Z,46.36
2023-03-13T15:29:12.368Z,46.45
2023-03-13T15:31:40.100Z,46.49
2023-03-13T15:34:12.379Z,46.67
2023-03-13T15:36:40.788Z,46.71
2023-03-13T15:39:21.214Z,46.77
2023-03-13T15:41:48.107Z,46.90
2023-03-13T15:44:15.140Z,46.99
2023-03-13T15:46:41.979Z,47.06
2023-03-13T15:49:13.013Z,47.15
2023-03-13T15:51:39.929Z,47.34
2023-03-13T15:54:06.796Z,47.53
2023-03-13T15:56:38.791Z,47.54
2023-03-13T15:59:13.532Z,47.66
2023-03-13T16:01:40.809Z,47.84
2023-03-13T16:04:07.829Z,47.95
2023-03-13T16:06:34.628Z,48.09
2023-03-13T16:09:05.393Z,48.10
2023-03-13T16:11:34.673Z,48.16
2023-03-13T16:14:05.359Z,48.16
2023-03-13T16:16:37.525Z,48.36
2023-03-13T16:19:04.677Z,48.35
2023-03-13T16:21:34.731Z,48.36
2023-03-13T16:24:02.043Z,48.38
2023-03-13T16:26:31.794Z,48.47
2023-03-13T16:28:59.112Z,48.56
2023-03-13T16:31:28.961Z,48.59
2023-03-13T16:33:57.660Z,48.64
2023-03-13T16:36:32.764Z,48.71
2023-03-13T16:39:01.712Z,48.82
2023-03-13T16:41:29.417Z,48.86
2023-03-13T16:43:56.662Z,48.64
2023-03-13T16:46:32.915Z,48.30
2023-03-13T16:48:59.884Z,48.19
2023-03-13T16:51:28.504Z,48.29
2023-03-13T16:53:59.743Z,48.13
2023-03-13T16:56:35.455Z,48.13
2023-03-13T16:59:07.019Z,48.07
2023-03-13T17:01:34.920Z,48.03
2023-03-13T17:04:02.162Z,48.06
2023-03-13T17:06:33.174Z,48.26
2023-03-13T17:09:10.894Z,48.40
2023-03-13T17:11:41.732Z,48.54
2023-03-13T17:14:10.355Z,48.67
2023-03-13T17:16:43.007Z,48.82
2023-03-13T17:19:14.078Z,49.01
2023-03-13T17:21:41.643Z,49.20
2023-03-13T17:24:09.048Z,49.33
2023-03-13T17:26:38.263Z,49.30
2023-03-13T17:29:06.470Z,49.38
2023-03-13T17:31:38.327Z,49.25
2023-03-13T17:34:06.649Z,49.39
2023-03-13T17:36:35.416Z,49.42
2023-03-13T17:39:05.775Z,49.35
2023-03-13T17:41:34.848Z,49.61
2023-03-13T17:44:04.116Z,49.67
2023-03-13T17:46:32.622Z,49.69
2023-03-13T17:49:00.486Z,49.71
2023-03-13T17:51:32.361Z,49.70
2023-03-13T17:54:00.445Z,49.77
2023-03-13T17:56:32.064Z,49.81
2023-03-13T17:59:02.005Z,49.81
2023-03-13T18:01:33.188Z,49.92
2023-03-13T18:04:02.702Z,49.99
2023-03-13T18:06:37.418Z,49.97
2023-03-13T18:09:08.805Z,50.02
2023-03-13T18:11:39.753Z,50.15
2023-03-13T18:14:07.268Z,50.35
2023-03-13T18:16:48.183Z,50.37
2023-03-13T18:19:19.935Z,50.46
2023-03-13T18:21:50.261Z,50.46
2023-03-13T18:24:18.908Z,50.49
2023-03-13T18:26:48.008Z,50.54
2023-03-13T18:29:27.233Z,50.49
2023-03-13T18:31:56.357Z,50.64
2023-03-13T18:34:25.384Z,50.54
2023-03-13T18:36:54.416Z,50.64
2023-03-13T18:39:22.393Z,50.64
2023-03-13T18:41:52.818Z,50.69
2023-03-13T18:44:24.105Z,50.78
2023-03-13T18:46:53.192Z,50.69
2023-03-13T18:49:22.903Z,50.77
2023-03-13T18:51:56.145Z,50.78
2023-03-13T18:54:23.814Z,50.94
2023-03-13T18:56:52.031Z,50.84
2023-03-13T18:59:21.536Z,51.07
2023-03-13T19:01:51.656Z,51.14
2023-03-13T19:04:21.306Z,51.25
2023-03-13T19:06:49.445Z,51.45
2023-03-13T19:09:42.217Z,51.51
2023-03-13T19:12:14.728Z,51.51
2023-03-13T19:14:42.997Z,51.51
2023-03-13T19:17:30.811Z,51.50
2023-03-13T19:19:58.776Z,51.43
2023-03-13T19:22:27.661Z,51.62
2023-03-13T19:24:56.338Z,51.69
2023-03-13T19:27:25.187Z,51.72
2023-03-13T19:29:52.962Z,51.89
2023-03-13T19:32:20.708Z,51.81
2023-03-13T19:34:50.554Z,51.93
2023-03-13T19:37:21.004Z,51.77
2023-03-13T19:39:51.075Z,51.92
2023-03-13T19:42:20.218Z,51.94
2023-03-13T19:44:48.487Z,51.95
2023-03-13T19:47:18.012Z,52.00
2023-03-13T19:49:45.715Z,52.13
2023-03-13T19:52:14.795Z,52.14
2023-03-13T19:54:42.504Z,52.20
2023-03-13T19:57:11.928Z,52.18
2023-03-13T19:59:40.177Z,52.32
2023-03-13T20:02:09.607Z,52.23
2023-03-13T20:04:40.789Z,52.25
2023-03-13T20:07:08.628Z,52.26
2023-03-13T20:09:36.856Z,52.23
2023-03-13T20:12:05.129Z,52.33
2023-03-13T20:14:32.935Z,52.21
2023-03-13T20:17:00.500Z,52.26
2023-03-13T20:19:30.254Z,52.41
2023-03-13T20:22:04.043Z,52.41
2023-03-13T20:24:36.137Z,52.41
2023-03-13T20:27:05.049Z,52.44
2023-03-13T20:29:33.307Z,52.49
2023-03-13T20:32:02.219Z,52.62
2023-03-13T20:34:30.330Z,52.57
2023-03-13T20:37:03.878Z,52.64
2023-03-13T20:39:34.827Z,52.73
2023-03-13T20:42:03.583Z,52.76
2023-03-13T20:44:31.619Z,52.75
2023-03-13T20:47:01.020Z,52.90
2023-03-13T20:49:29.441Z,52.91
2023-03-13T20:51:57.237Z,52.99
2023-03-13T20:54:24.791Z,53.00
2023-03-13T20:56:52.181Z,53.04
2023-03-13T20:59:19.896Z,53.07
2023-03-13T21:01:47.910Z,53.18
2023-03-13T21:04:16.098Z,53.32
2023-03-13T21:06:43.976Z,53.32
2023-03-13T21:09:11.665Z,53.37
2023-03-13T21:11:38.771Z,53.49
2023-03-13T21:14:06.379Z,53.55
2023-03-13T21:16:33.789Z,53.59
2023-03-13T21:19:01.664Z,53.54
2023-03-13T21:21:29.760Z,53.59
2023-03-13T21:23:56.835Z,53.59
2023-03-13T21:26:23.811Z,53.59
2023-03-13T21:28:53.225Z,53.65
2023-03-13T21:31:20.370Z,53.64
2023-03-13T21:33:48.494Z,53.65
2023-03-13T21:36:17.828Z,53.68
2023-03-13T21:38:44.841Z,53.79
2023-03-13T21:41:15.521Z,53.80
2023-03-13T21:43:42.922Z,53.92
2023-03-13T21:46:11.118Z,53.88
2023-03-13T21:48:39.687Z,53.80
2023-03-13T21:51:07.660Z,53.93
2023-03-13T21:53:35.480Z,53.89
2023-03-13T21:56:02.440Z,53.86
2023-03-13T21:58:29.297Z,53.95
2023-03-13T22:00:57.519Z,54.04
2023-03-13T22:03:26.777Z,54.08
2023-03-13T22:05:54.313Z,54.12
2023-03-13T22:08:21.391Z,54.18
2023-03-13T22:10:50.202Z,54.21
2023-03-13T22:13:17.355Z,54.15
2023-03-13T22:15:46.670Z,54.20
2023-03-13T22:18:17.085Z,54.29
2023-03-13T22:20:44.344Z,54.30
2023-03-13T22:23:12.225Z,54.35
2023-03-13T22:25:40.513Z,54.31
2023-03-13T22:28:07.398Z,54.42
2023-03-13T22:30:34.824Z,54.67
2023-03-13T22:33:03.953Z,54.60
2023-03-13T22:35:30.820Z,54.73
2023-03-13T22:37:57.697Z,54.89
2023-03-13T22:40:24.818Z,54.94
2023-03-13T22:42:51.838Z,54.98
2023-03-13T22:45:19.282Z,55.01
2023-03-13T22:47:46.187Z,55.08
2023-03-13T22:50:13.954Z,55.17
2023-03-13T22:52:40.994Z,55.24
2023-03-13T22:55:08.187Z,55.32
2023-03-13T22:57:35.093Z,55.38
2023-03-13T23:00:01.959Z,55.50
2023-03-13T23:02:29.301Z,55.43
2023-03-13T23:04:58.545Z,55.52
2023-03-13T23:07:28.481Z,55.61
2023-03-13T23:09:57.528Z,55.64
2023-03-13T23:12:26.050Z,55.63
2023-03-13T23:14:53.257Z,55.63
2023-03-13T23:17:20.115Z,55.66
2023-03-13T23:19:47.048Z,55.75
2023-03-13T23:22:17.910Z,55.90
2023-03-13T23:24:44.960Z,55.89
2023-03-13T23:27:11.969Z,55.89
2023-03-13T23:29:38.973Z,55.95
2023-03-13T23:32:06.285Z,56.00
2023-03-13T23:34:35.569Z,55.98
2023-03-13T23:37:02.545Z,56.03
2023-03-13T23:39:29.607Z,55.97
2023-03-13T23:41:56.504Z,55.88
2023-03-13T23:44:23.628Z,55.81
2023-03-13T23:46:50.443Z,55.76
2023-03-13T23:49:17.250Z,55.74
2023-03-13T23:51:44.042Z,55.71
2023-03-13T23:54:10.842Z,55.64
2023-03-13T23:56:37.669Z,55.65
2023-03-13T23:59:04.618Z,55.71
